sensor_id;sensor_type;location;lat;lon;timestamp;P1;durP1;ratioP1;P2;durP2;ratioP2
32038;SDS011;18549;42.286;22.688;2024-01-30T00:02:11;9.50;;;6.67;;
32038;SDS011;18549;42.286;22.688;2024-01-30T00:04:39;11.33;;;6.70;;
32038;SDS011;18549;42.286;22.688;2024-01-30T00:07:08;11.97;;;7.50;;
32038;SDS011;18549;42.286;22.688;2024-01-30T00:09:35;12.23;;;7.70;;
32038;SDS011;18549;42.286;22.688;2024-01-30T00:12:02;10.47;;;6.73;;
32038;SDS011;18549;42.286;22.688;2024-01-30T00:14:33;11.23;;;6.80;;
32038;SDS011;18549;42.286;22.688;2024-01-30T00:16:59;13.73;;;8.10;;
32038;SDS011;18549;42.286;22.688;2024-01-30T00:19:33;12.00;;;7.47;;
32038;SDS011;18549;42.286;22.688;2024-01-30T00:22:03;8.43;;;6.63;;
32038;SDS011;18549;42.286;22.688;2024-01-30T00:24:30;9.70;;;6.50;;
32038;SDS011;18549;42.286;22.688;2024-01-30T00:26:57;9.67;;;6.30;;
32038;SDS011;18549;42.286;22.688;2024-01-30T00:29:24;14.30;;;9.33;;
32038;SDS011;18549;42.286;22.688;2024-01-30T00:31:57;20.23;;;13.03;;
32038;SDS011;18549;42.286;22.688;2024-01-30T00:34:24;18.03;;;11.67;;
32038;SDS011;18549;42.286;22.688;2024-01-30T00:36:57;18.77;;;11.63;;
32038;SDS011;18549;42.286;22.688;2024-01-30T00:39:25;15.10;;;8.73;;
32038;SDS011;18549;42.286;22.688;2024-01-30T00:41:53;15.07;;;10.50;;
32038;SDS011;18549;42.286;22.688;2024-01-30T00:44:20;17.80;;;12.50;;
32038;SDS011;18549;42.286;22.688;2024-01-30T00:46:46;53.03;;;29.60;;
32038;SDS011;18549;42.286;22.688;2024-01-30T00:49:13;36.57;;;20.37;;
32038;SDS011;18549;42.286;22.688;2024-01-30T00:51:42;31.60;;;18.70;;
32038;SDS011;18549;42.286;22.688;2024-01-30T00:54:20;16.07;;;10.73;;
32038;SDS011;18549;42.286;22.688;2024-01-30T00:56:47;19.93;;;10.67;;
32038;SDS011;18549;42.286;22.688;2024-01-30T00:59:31;13.57;;;9.40;;
32038;SDS011;18549;42.286;22.688;2024-01-30T01:02:01;13.93;;;9.13;;
32038;SDS011;18549;42.286;22.688;2024-01-30T01:04:29;18.40;;;10.33;;
32038;SDS011;18549;42.286;22.688;2024-01-30T01:06:56;13.00;;;9.63;;
32038;SDS011;18549;42.286;22.688;2024-01-30T01:09:25;18.60;;;9.77;;
32038;SDS011;18549;42.286;22.688;2024-01-30T01:11:52;18.87;;;11.93;;
32038;SDS011;18549;42.286;22.688;2024-01-30T01:14:19;19.40;;;10.93;;
32038;SDS011;18549;42.286;22.688;2024-01-30T01:16:46;22.70;;;12.67;;
32038;SDS011;18549;42.286;22.688;2024-01-30T01:19:13;25.73;;;13.83;;
32038;SDS011;18549;42.286;22.688;2024-01-30T01:21:43;17.80;;;9.83;;
32038;SDS011;18549;42.286;22.688;2024-01-30T01:24:10;16.70;;;10.30;;
32038;SDS011;18549;42.286;22.688;2024-01-30T01:26:42;18.10;;;9.87;;
32038;SDS011;18549;42.286;22.688;2024-01-30T01:29:09;23.73;;;14.20;;
32038;SDS011;18549;42.286;22.688;2024-01-30T01:31:38;22.83;;;13.47;;
32038;SDS011;18549;42.286;22.688;2024-01-30T01:34:11;22.80;;;12.57;;
32038;SDS011;18549;42.286;22.688;2024-01-30T01:36:39;15.83;;;11.53;;
32038;SDS011;18549;42.286;22.688;2024-01-30T01:39:07;19.27;;;11.03;;
32038;SDS011;18549;42.286;22.688;2024-01-30T01:41:34;14.13;;;9.07;;
32038;SDS011;18549;42.286;22.688;2024-01-30T01:44:05;20.47;;;12.77;;
32038;SDS011;18549;42.286;22.688;2024-01-30T01:46:35;15.47;;;10.30;;
32038;SDS011;18549;42.286;22.688;2024-01-30T01:49:07;17.63;;;9.57;;
32038;SDS011;18549;42.286;22.688;2024-01-30T01:51:36;19.07;;;11.53;;
32038;SDS011;18549;42.286;22.688;2024-01-30T01:54:06;18.53;;;9.40;;
32038;SDS011;18549;42.286;22.688;2024-01-30T01:56:35;25.03;;;14.93;;
32038;SDS011;18549;42.286;22.688;2024-01-30T01:59:09;19.10;;;10.97;;
32038;SDS011;18549;42.286;22.688;2024-01-30T02:01:37;18.10;;;12.40;;
32038;SDS011;18549;42.286;22.688;2024-01-30T02:04:07;14.40;;;9.20;;
32038;SDS011;18549;42.286;22.688;2024-01-30T02:06:35;15.37;;;10.37;;
32038;SDS011;18549;42.286;22.688;2024-01-30T02:09:01;18.73;;;9.60;;
32038;SDS011;18549;42.286;22.688;2024-01-30T02:11:30;18.87;;;10.77;;
32038;SDS011;18549;42.286;22.688;2024-01-30T02:14:01;20.33;;;11.23;;
32038;SDS011;18549;42.286;22.688;2024-01-30T02:16:31;56.93;;;24.77;;
32038;SDS011;18549;42.286;22.688;2024-01-30T02:18:58;24.20;;;14.33;;
32038;SDS011;18549;42.286;22.688;2024-01-30T02:21:31;29.80;;;15.60;;
32038;SDS011;18549;42.286;22.688;2024-01-30T02:23:59;23.97;;;13.13;;
32038;SDS011;18549;42.286;22.688;2024-01-30T02:26:35;19.63;;;12.53;;
32038;SDS011;18549;42.286;22.688;2024-01-30T02:29:01;18.60;;;11.00;;
32038;SDS011;18549;42.286;22.688;2024-01-30T02:31:30;26.70;;;14.33;;
32038;SDS011;18549;42.286;22.688;2024-01-30T02:33:58;34.77;;;17.00;;
32038;SDS011;18549;42.286;22.688;2024-01-30T02:36:24;32.97;;;16.23;;
32038;SDS011;18549;42.286;22.688;2024-01-30T02:38:54;20.93;;;11.13;;
32038;SDS011;18549;42.286;22.688;2024-01-30T02:41:22;14.07;;;8.70;;
32038;SDS011;18549;42.286;22.688;2024-01-30T02:43:50;18.27;;;10.70;;
32038;SDS011;18549;42.286;22.688;2024-01-30T02:46:19;18.03;;;10.77;;
32038;SDS011;18549;42.286;22.688;2024-01-30T02:48:47;19.67;;;12.13;;
32038;SDS011;18549;42.286;22.688;2024-01-30T02:51:14;22.67;;;11.63;;
32038;SDS011;18549;42.286;22.688;2024-01-30T02:53:44;22.63;;;11.47;;
32038;SDS011;18549;42.286;22.688;2024-01-30T02:56:12;23.23;;;10.53;;
32038;SDS011;18549;42.286;22.688;2024-01-30T02:58:42;19.03;;;9.90;;
32038;SDS011;18549;42.286;22.688;2024-01-30T03:01:12;17.07;;;10.17;;
32038;SDS011;18549;42.286;22.688;2024-01-30T03:03:39;21.90;;;10.33;;
32038;SDS011;18549;42.286;22.688;2024-01-30T03:06:25;19.67;;;9.50;;
32038;SDS011;18549;42.286;22.688;2024-01-30T03:08:53;19.70;;;11.03;;
32038;SDS011;18549;42.286;22.688;2024-01-30T03:11:21;12.50;;;7.43;;
32038;SDS011;18549;42.286;22.688;2024-01-30T03:13:50;91.67;;;34.63;;
32038;SDS011;18549;42.286;22.688;2024-01-30T03:16:19;40.47;;;19.47;;
32038;SDS011;18549;42.286;22.688;2024-01-30T03:18:47;30.00;;;14.13;;
32038;SDS011;18549;42.286;22.688;2024-01-30T03:21:15;23.10;;;14.77;;
32038;SDS011;18549;42.286;22.688;2024-01-30T03:23:42;26.07;;;17.23;;
32038;SDS011;18549;42.286;22.688;2024-01-30T03:26:12;12.87;;;9.47;;
32038;SDS011;18549;42.286;22.688;2024-01-30T03:28:42;11.53;;;7.87;;
32038;SDS011;18549;42.286;22.688;2024-01-30T03:31:13;7.03;;;6.00;;
32038;SDS011;18549;42.286;22.688;2024-01-30T03:33:43;7.87;;;6.23;;
32038;SDS011;18549;42.286;22.688;2024-01-30T03:36:15;7.70;;;5.37;;
32038;SDS011;18549;42.286;22.688;2024-01-30T03:38:44;11.33;;;5.77;;
32038;SDS011;18549;42.286;22.688;2024-01-30T03:41:12;8.07;;;5.60;;
32038;SDS011;18549;42.286;22.688;2024-01-30T03:43:42;6.40;;;5.57;;
32038;SDS011;18549;42.286;22.688;2024-01-30T03:46:17;6.70;;;5.03;;
32038;SDS011;18549;42.286;22.688;2024-01-30T03:48:45;10.10;;;6.37;;
32038;SDS011;18549;42.286;22.688;2024-01-30T03:51:15;9.67;;;6.97;;
32038;SDS011;18549;42.286;22.688;2024-01-30T03:53:43;12.43;;;7.37;;
32038;SDS011;18549;42.286;22.688;2024-01-30T03:56:13;28.83;;;14.07;;
32038;SDS011;18549;42.286;22.688;2024-01-30T03:58:40;23.93;;;12.80;;
32038;SDS011;18549;42.286;22.688;2024-01-30T04:01:12;42.13;;;19.03;;
32038;SDS011;18549;42.286;22.688;2024-01-30T04:03:39;46.77;;;22.70;;
32038;SDS011;18549;42.286;22.688;2024-01-30T04:06:06;57.07;;;25.03;;
32038;SDS011;18549;42.286;22.688;2024-01-30T04:08:33;38.67;;;22.07;;
32038;SDS011;18549;42.286;22.688;2024-01-30T04:11:02;40.27;;;20.17;;
32038;SDS011;18549;42.286;22.688;2024-01-30T04:13:30;30.40;;;15.27;;
32038;SDS011;18549;42.286;22.688;2024-01-30T04:15:58;26.03;;;15.23;;
32038;SDS011;18549;42.286;22.688;2024-01-30T04:18:29;15.27;;;9.03;;
32038;SDS011;18549;42.286;22.688;2024-01-30T04:20:57;11.23;;;7.43;;
32038;SDS011;18549;42.286;22.688;2024-01-30T04:23:25;9.40;;;7.60;;
32038;SDS011;18549;42.286;22.688;2024-01-30T04:25:55;13.07;;;9.53;;
32038;SDS011;18549;42.286;22.688;2024-01-30T04:28:24;20.93;;;12.13;;
32038;SDS011;18549;42.286;22.688;2024-01-30T04:30:53;28.90;;;14.50;;
32038;SDS011;18549;42.286;22.688;2024-01-30T04:33:21;52.27;;;21.70;;
32038;SDS011;18549;42.286;22.688;2024-01-30T04:35:50;105.90;;;41.80;;
32038;SDS011;18549;42.286;22.688;2024-01-30T04:38:17;123.23;;;46.20;;
32038;SDS011;18549;42.286;22.688;2024-01-30T04:40:48;98.27;;;39.27;;
32038;SDS011;18549;42.286;22.688;2024-01-30T04:43:16;85.40;;;38.30;;
32038;SDS011;18549;42.286;22.688;2024-01-30T04:45:46;49.93;;;25.17;;
32038;SDS011;18549;42.286;22.688;2024-01-30T04:48:15;36.13;;;18.63;;
32038;SDS011;18549;42.286;22.688;2024-01-30T04:50:45;26.90;;;14.50;;
32038;SDS011;18549;42.286;22.688;2024-01-30T04:53:13;23.60;;;12.37;;
32038;SDS011;18549;42.286;22.688;2024-01-30T04:55:40;18.03;;;11.57;;
32038;SDS011;18549;42.286;22.688;2024-01-30T04:58:10;18.10;;;10.63;;
32038;SDS011;18549;42.286;22.688;2024-01-30T05:00:38;12.77;;;7.67;;
32038;SDS011;18549;42.286;22.688;2024-01-30T05:03:07;24.10;;;10.70;;
32038;SDS011;18549;42.286;22.688;2024-01-30T05:05:37;23.30;;;11.43;;
32038;SDS011;18549;42.286;22.688;2024-01-30T05:08:07;14.93;;;9.27;;
32038;SDS011;18549;42.286;22.688;2024-01-30T05:10:35;23.30;;;12.30;;
32038;SDS011;18549;42.286;22.688;2024-01-30T05:13:02;19.10;;;10.63;;
32038;SDS011;18549;42.286;22.688;2024-01-30T05:15:31;18.27;;;11.10;;
32038;SDS011;18549;42.286;22.688;2024-01-30T05:18:00;10.07;;;6.97;;
32038;SDS011;18549;42.286;22.688;2024-01-30T05:20:31;18.80;;;11.50;;
32038;SDS011;18549;42.286;22.688;2024-01-30T05:22:59;15.13;;;8.47;;
32038;SDS011;18549;42.286;22.688;2024-01-30T05:25:27;24.40;;;13.70;;
32038;SDS011;18549;42.286;22.688;2024-01-30T05:27:57;21.00;;;12.93;;
32038;SDS011;18549;42.286;22.688;2024-01-30T05:30:25;32.03;;;16.53;;
32038;SDS011;18549;42.286;22.688;2024-01-30T05:32:52;30.47;;;16.07;;
32038;SDS011;18549;42.286;22.688;2024-01-30T05:35:19;26.03;;;16.90;;
32038;SDS011;18549;42.286;22.688;2024-01-30T05:37:50;36.03;;;15.87;;
32038;SDS011;18549;42.286;22.688;2024-01-30T05:40:18;21.40;;;11.87;;
32038;SDS011;18549;42.286;22.688;2024-01-30T05:42:50;20.07;;;11.23;;
32038;SDS011;18549;42.286;22.688;2024-01-30T05:45:19;18.07;;;11.03;;
32038;SDS011;18549;42.286;22.688;2024-01-30T05:47:47;26.80;;;11.77;;
32038;SDS011;18549;42.286;22.688;2024-01-30T05:50:15;32.73;;;10.40;;
32038;SDS011;18549;42.286;22.688;2024-01-30T05:52:48;19.17;;;7.53;;
32038;SDS011;18549;42.286;22.688;2024-01-30T05:55:18;19.80;;;7.83;;
32038;SDS011;18549;42.286;22.688;2024-01-30T05:57:45;27.43;;;8.47;;
32038;SDS011;18549;42.286;22.688;2024-01-30T06:00:17;13.87;;;7.87;;
32038;SDS011;18549;42.286;22.688;2024-01-30T06:02:47;62.27;;;25.00;;
32038;SDS011;18549;42.286;22.688;2024-01-30T06:05:15;25.03;;;15.53;;
32038;SDS011;18549;42.286;22.688;2024-01-30T06:07:43;12.20;;;7.80;;
32038;SDS011;18549;42.286;22.688;2024-01-30T06:10:10;52.60;;;28.30;;
32038;SDS011;18549;42.286;22.688;2024-01-30T06:12:37;37.00;;;19.47;;
32038;SDS011;18549;42.286;22.688;2024-01-30T06:15:15;19.30;;;11.80;;
32038;SDS011;18549;42.286;22.688;2024-01-30T06:17:46;13.27;;;8.80;;
32038;SDS011;18549;42.286;22.688;2024-01-30T06:20:14;10.57;;;7.97;;
32038;SDS011;18549;42.286;22.688;2024-01-30T06:22:42;13.73;;;9.23;;
32038;SDS011;18549;42.286;22.688;2024-01-30T06:25:09;15.20;;;7.50;;
32038;SDS011;18549;42.286;22.688;2024-01-30T06:27:38;19.97;;;7.67;;
32038;SDS011;18549;42.286;22.688;2024-01-30T06:30:07;23.97;;;10.10;;
32038;SDS011;18549;42.286;22.688;2024-01-30T06:32:37;19.80;;;11.40;;
32038;SDS011;18549;42.286;22.688;2024-01-30T06:35:18;19.47;;;10.60;;
32038;SDS011;18549;42.286;22.688;2024-01-30T06:37:47;8.73;;;5.63;;
32038;SDS011;18549;42.286;22.688;2024-01-30T06:40:17;17.10;;;7.13;;
32038;SDS011;18549;42.286;22.688;2024-01-30T06:42:43;16.10;;;5.77;;
32038;SDS011;18549;42.286;22.688;2024-01-30T06:45:12;7.33;;;5.33;;
32038;SDS011;18549;42.286;22.688;2024-01-30T06:47:43;10.43;;;6.70;;
32038;SDS011;18549;42.286;22.688;2024-01-30T06:50:11;10.40;;;5.70;;
32038;SDS011;18549;42.286;22.688;2024-01-30T06:52:37;4.47;;;3.57;;
32038;SDS011;18549;42.286;22.688;2024-01-30T06:55:04;14.40;;;4.07;;
32038;SDS011;18549;42.286;22.688;2024-01-30T06:57:32;7.43;;;4.40;;
32038;SDS011;18549;42.286;22.688;2024-01-30T06:59:58;7.67;;;4.87;;
32038;SDS011;18549;42.286;22.688;2024-01-30T07:02:25;11.47;;;4.57;;
32038;SDS011;18549;42.286;22.688;2024-01-30T07:04:52;6.73;;;4.67;;
32038;SDS011;18549;42.286;22.688;2024-01-30T07:07:20;11.47;;;4.23;;
32038;SDS011;18549;42.286;22.688;2024-01-30T07:09:46;13.97;;;7.17;;
32038;SDS011;18549;42.286;22.688;2024-01-30T07:12:14;16.60;;;10.63;;
32038;SDS011;18549;42.286;22.688;2024-01-30T07:14:41;14.63;;;9.63;;
32038;SDS011;18549;42.286;22.688;2024-01-30T07:17:08;20.73;;;12.60;;
32038;SDS011;18549;42.286;22.688;2024-01-30T07:19:34;17.23;;;13.47;;
32038;SDS011;18549;42.286;22.688;2024-01-30T07:22:01;17.23;;;12.67;;
32038;SDS011;18549;42.286;22.688;2024-01-30T07:24:29;17.40;;;14.00;;
32038;SDS011;18549;42.286;22.688;2024-01-30T07:26:56;12.63;;;8.83;;
32038;SDS011;18549;42.286;22.688;2024-01-30T07:29:23;8.30;;;6.37;;
32038;SDS011;18549;42.286;22.688;2024-01-30T07:31:49;8.20;;;4.33;;
32038;SDS011;18549;42.286;22.688;2024-01-30T07:34:16;41.10;;;23.00;;
32038;SDS011;18549;42.286;22.688;2024-01-30T07:36:43;19.80;;;10.67;;
32038;SDS011;18549;42.286;22.688;2024-01-30T07:39:10;6.93;;;5.07;;
32038;SDS011;18549;42.286;22.688;2024-01-30T07:41:38;7.43;;;5.67;;
32038;SDS011;18549;42.286;22.688;2024-01-30T07:44:04;10.97;;;8.23;;
32038;SDS011;18549;42.286;22.688;2024-01-30T07:46:31;7.43;;;5.03;;
32038;SDS011;18549;42.286;22.688;2024-01-30T07:48:58;14.17;;;8.87;;
32038;SDS011;18549;42.286;22.688;2024-01-30T07:51:25;16.57;;;10.87;;
32038;SDS011;18549;42.286;22.688;2024-01-30T07:53:53;13.47;;;6.37;;
32038;SDS011;18549;42.286;22.688;2024-01-30T07:56:22;8.13;;;5.73;;
32038;SDS011;18549;42.286;22.688;2024-01-30T07:58:50;6.63;;;4.77;;
32038;SDS011;18549;42.286;22.688;2024-01-30T08:01:18;5.13;;;4.03;;
32038;SDS011;18549;42.286;22.688;2024-01-30T08:03:45;6.27;;;4.10;;
32038;SDS011;18549;42.286;22.688;2024-01-30T08:06:11;8.07;;;6.53;;
32038;SDS011;18549;42.286;22.688;2024-01-30T08:08:38;11.30;;;6.63;;
32038;SDS011;18549;42.286;22.688;2024-01-30T08:11:05;7.70;;;4.73;;
32038;SDS011;18549;42.286;22.688;2024-01-30T08:13:32;13.50;;;6.40;;
32038;SDS011;18549;42.286;22.688;2024-01-30T08:16:00;10.07;;;5.63;;
32038;SDS011;18549;42.286;22.688;2024-01-30T08:18:27;8.17;;;4.50;;
32038;SDS011;18549;42.286;22.688;2024-01-30T08:20:54;12.27;;;7.03;;
32038;SDS011;18549;42.286;22.688;2024-01-30T08:23:21;4.00;;;3.57;;
32038;SDS011;18549;42.286;22.688;2024-01-30T08:25:47;6.20;;;4.50;;
32038;SDS011;18549;42.286;22.688;2024-01-30T08:28:14;19.87;;;7.47;;
32038;SDS011;18549;42.286;22.688;2024-01-30T08:30:41;11.40;;;6.23;;
32038;SDS011;18549;42.286;22.688;2024-01-30T08:33:09;9.37;;;3.97;;
32038;SDS011;18549;42.286;22.688;2024-01-30T08:35:35;13.07;;;7.07;;
32038;SDS011;18549;42.286;22.688;2024-01-30T08:38:03;7.40;;;4.80;;
32038;SDS011;18549;42.286;22.688;2024-01-30T08:40:30;4.30;;;3.17;;
32038;SDS011;18549;42.286;22.688;2024-01-30T08:42:56;9.47;;;4.90;;
32038;SDS011;18549;42.286;22.688;2024-01-30T08:45:23;7.37;;;4.93;;
32038;SDS011;18549;42.286;22.688;2024-01-30T08:47:50;6.33;;;3.90;;
32038;SDS011;18549;42.286;22.688;2024-01-30T08:50:18;19.90;;;9.63;;
32038;SDS011;18549;42.286;22.688;2024-01-30T08:52:45;20.33;;;11.13;;
32038;SDS011;18549;42.286;22.688;2024-01-30T08:55:12;21.63;;;13.07;;
32038;SDS011;18549;42.286;22.688;2024-01-30T08:57:38;11.80;;;8.17;;
32038;SDS011;18549;42.286;22.688;2024-01-30T09:00:05;5.43;;;4.27;;
32038;SDS011;18549;42.286;22.688;2024-01-30T09:02:34;3.83;;;3.13;;
32038;SDS011;18549;42.286;22.688;2024-01-30T09:05:01;10.40;;;3.57;;
32038;SDS011;18549;42.286;22.688;2024-01-30T09:07:29;7.77;;;3.17;;
32038;SDS011;18549;42.286;22.688;2024-01-30T09:09:56;7.07;;;4.30;;
32038;SDS011;18549;42.286;22.688;2024-01-30T09:12:22;6.33;;;4.03;;
32038;SDS011;18549;42.286;22.688;2024-01-30T09:14:49;17.70;;;8.60;;
32038;SDS011;18549;42.286;22.688;2024-01-30T09:17:16;28.80;;;13.33;;
32038;SDS011;18549;42.286;22.688;2024-01-30T09:19:43;7.17;;;5.13;;
32038;SDS011;18549;42.286;22.688;2024-01-30T09:22:10;6.67;;;4.73;;
32038;SDS011;18549;42.286;22.688;2024-01-30T09:24:38;8.97;;;4.17;;
32038;SDS011;18549;42.286;22.688;2024-01-30T09:27:04;6.40;;;4.53;;
32038;SDS011;18549;42.286;22.688;2024-01-30T09:29:31;6.03;;;4.40;;
32038;SDS011;18549;42.286;22.688;2024-01-30T09:31:59;7.23;;;5.07;;
32038;SDS011;18549;42.286;22.688;2024-01-30T09:34:26;6.47;;;3.60;;
32038;SDS011;18549;42.286;22.688;2024-01-30T09:36:52;5.53;;;4.20;;
32038;SDS011;18549;42.286;22.688;2024-01-30T09:39:19;7.90;;;5.17;;
32038;SDS011;18549;42.286;22.688;2024-01-30T09:41:49;5.60;;;4.43;;
32038;SDS011;18549;42.286;22.688;2024-01-30T09:44:22;5.50;;;3.60;;
32038;SDS011;18549;42.286;22.688;2024-01-30T09:46:52;5.90;;;4.17;;
32038;SDS011;18549;42.286;22.688;2024-01-30T09:49:18;13.67;;;4.47;;
32038;SDS011;18549;42.286;22.688;2024-01-30T09:51:46;4.47;;;3.53;;
32038;SDS011;18549;42.286;22.688;2024-01-30T09:54:14;10.10;;;4.97;;
32038;SDS011;18549;42.286;22.688;2024-01-30T09:56:42;7.07;;;3.97;;
32038;SDS011;18549;42.286;22.688;2024-01-30T09:59:10;22.30;;;11.80;;
32038;SDS011;18549;42.286;22.688;2024-01-30T10:01:37;16.93;;;8.33;;
32038;SDS011;18549;42.286;22.688;2024-01-30T10:04:04;7.53;;;4.83;;
32038;SDS011;18549;42.286;22.688;2024-01-30T10:06:32;6.03;;;4.13;;
32038;SDS011;18549;42.286;22.688;2024-01-30T10:08:58;9.95;;;6.82;;
32038;SDS011;18549;42.286;22.688;2024-01-30T10:11:25;4.07;;;3.40;;
32038;SDS011;18549;42.286;22.688;2024-01-30T10:13:52;6.80;;;4.47;;
32038;SDS011;18549;42.286;22.688;2024-01-30T10:16:20;23.47;;;12.17;;
32038;SDS011;18549;42.286;22.688;2024-01-30T10:18:47;7.03;;;4.00;;
32038;SDS011;18549;42.286;22.688;2024-01-30T10:21:13;10.20;;;6.50;;
32038;SDS011;18549;42.286;22.688;2024-01-30T10:23:41;13.03;;;9.03;;
32038;SDS011;18549;42.286;22.688;2024-01-30T10:26:09;81.27;;;35.07;;
32038;SDS011;18549;42.286;22.688;2024-01-30T10:28:36;99.23;;;46.20;;
32038;SDS011;18549;42.286;22.688;2024-01-30T10:31:03;22.70;;;12.40;;
32038;SDS011;18549;42.286;22.688;2024-01-30T10:33:32;11.33;;;7.30;;
32038;SDS011;18549;42.286;22.688;2024-01-30T10:36:00;10.33;;;4.77;;
32038;SDS011;18549;42.286;22.688;2024-01-30T10:38:28;24.80;;;12.43;;
32038;SDS011;18549;42.286;22.688;2024-01-30T10:40:56;25.10;;;14.67;;
32038;SDS011;18549;42.286;22.688;2024-01-30T10:43:24;34.07;;;17.63;;
32038;SDS011;18549;42.286;22.688;2024-01-30T10:45:58;42.00;;;21.83;;
32038;SDS011;18549;42.286;22.688;2024-01-30T10:48:32;20.93;;;8.53;;
32038;SDS011;18549;42.286;22.688;2024-01-30T10:51:05;27.00;;;14.30;;
32038;SDS011;18549;42.286;22.688;2024-01-30T10:53:32;8.63;;;5.33;;
32038;SDS011;18549;42.286;22.688;2024-01-30T10:56:00;9.40;;;6.47;;
32038;SDS011;18549;42.286;22.688;2024-01-30T10:58:28;11.03;;;7.27;;
32038;SDS011;18549;42.286;22.688;2024-01-30T11:00:55;14.80;;;8.47;;
32038;SDS011;18549;42.286;22.688;2024-01-30T11:03:23;11.57;;;6.73;;
32038;SDS011;18549;42.286;22.688;2024-01-30T11:05:51;17.13;;;9.20;;
32038;SDS011;18549;42.286;22.688;2024-01-30T11:08:24;12.20;;;7.43;;
32038;SDS011;18549;42.286;22.688;2024-01-30T11:10:55;20.07;;;10.77;;
32038;SDS011;18549;42.286;22.688;2024-01-30T11:13:22;25.40;;;11.83;;
32038;SDS011;18549;42.286;22.688;2024-01-30T11:15:53;10.80;;;6.57;;
32038;SDS011;18549;42.286;22.688;2024-01-30T11:18:23;21.77;;;12.00;;
32038;SDS011;18549;42.286;22.688;2024-01-30T11:20:51;12.63;;;5.17;;
32038;SDS011;18549;42.286;22.688;2024-01-30T11:23:18;18.17;;;8.50;;
32038;SDS011;18549;42.286;22.688;2024-01-30T11:25:48;9.33;;;5.20;;
32038;SDS011;18549;42.286;22.688;2024-01-30T11:28:15;9.13;;;5.80;;
32038;SDS011;18549;42.286;22.688;2024-01-30T11:30:42;6.70;;;5.00;;
32038;SDS011;18549;42.286;22.688;2024-01-30T11:33:09;8.33;;;5.10;;
32038;SDS011;18549;42.286;22.688;2024-01-30T11:35:37;14.40;;;5.33;;
32038;SDS011;18549;42.286;22.688;2024-01-30T11:38:07;9.67;;;4.30;;
32038;SDS011;18549;42.286;22.688;2024-01-30T11:40:35;11.93;;;7.73;;
32038;SDS011;18549;42.286;22.688;2024-01-30T11:43:03;15.77;;;10.90;;
32038;SDS011;18549;42.286;22.688;2024-01-30T11:45:31;8.33;;;5.23;;
32038;SDS011;18549;42.286;22.688;2024-01-30T11:47:59;10.20;;;6.20;;
32038;SDS011;18549;42.286;22.688;2024-01-30T11:50:28;14.30;;;8.30;;
32038;SDS011;18549;42.286;22.688;2024-01-30T11:52:55;10.20;;;6.40;;
32038;SDS011;18549;42.286;22.688;2024-01-30T11:55:24;9.50;;;5.87;;
32038;SDS011;18549;42.286;22.688;2024-01-30T11:57:50;8.90;;;4.70;;
32038;SDS011;18549;42.286;22.688;2024-01-30T12:00:18;10.53;;;7.53;;
32038;SDS011;18549;42.286;22.688;2024-01-30T12:02:48;10.03;;;5.03;;
32038;SDS011;18549;42.286;22.688;2024-01-30T12:05:16;6.00;;;4.43;;
32038;SDS011;18549;42.286;22.688;2024-01-30T12:07:43;14.37;;;6.83;;
32038;SDS011;18549;42.286;22.688;2024-01-30T12:10:10;14.77;;;9.17;;
32038;SDS011;18549;42.286;22.688;2024-01-30T12:12:40;8.33;;;4.97;;
32038;SDS011;18549;42.286;22.688;2024-01-30T12:15:08;12.87;;;5.30;;
32038;SDS011;18549;42.286;22.688;2024-01-30T12:17:36;13.23;;;7.20;;
32038;SDS011;18549;42.286;22.688;2024-01-30T12:20:03;14.90;;;9.67;;
32038;SDS011;18549;42.286;22.688;2024-01-30T12:22:32;10.87;;;6.47;;
32038;SDS011;18549;42.286;22.688;2024-01-30T12:25:00;8.13;;;4.77;;
32038;SDS011;18549;42.286;22.688;2024-01-30T12:27:26;15.50;;;6.40;;
32038;SDS011;18549;42.286;22.688;2024-01-30T12:29:58;25.17;;;10.47;;
32038;SDS011;18549;42.286;22.688;2024-01-30T12:32:24;12.00;;;5.00;;
32038;SDS011;18549;42.286;22.688;2024-01-30T12:34:54;31.43;;;9.87;;
32038;SDS011;18549;42.286;22.688;2024-01-30T12:37:21;12.70;;;7.53;;
32038;SDS011;18549;42.286;22.688;2024-01-30T12:39:49;8.17;;;5.10;;
32038;SDS011;18549;42.286;22.688;2024-01-30T12:42:18;8.50;;;4.47;;
32038;SDS011;18549;42.286;22.688;2024-01-30T12:44:45;18.57;;;8.57;;
32038;SDS011;18549;42.286;22.688;2024-01-30T12:47:14;10.47;;;6.47;;
32038;SDS011;18549;42.286;22.688;2024-01-30T12:49:42;21.23;;;8.00;;
32038;SDS011;18549;42.286;22.688;2024-01-30T12:52:09;4.93;;;3.90;;
32038;SDS011;18549;42.286;22.688;2024-01-30T12:54:36;10.20;;;7.63;;
32038;SDS011;18549;42.286;22.688;2024-01-30T12:57:02;7.60;;;4.37;;
32038;SDS011;18549;42.286;22.688;2024-01-30T12:59:30;10.17;;;6.03;;
32038;SDS011;18549;42.286;22.688;2024-01-30T13:01:56;9.90;;;5.60;;
32038;SDS011;18549;42.286;22.688;2024-01-30T13:04:25;7.20;;;4.60;;
32038;SDS011;18549;42.286;22.688;2024-01-30T13:06:51;8.20;;;4.87;;
32038;SDS011;18549;42.286;22.688;2024-01-30T13:09:18;6.27;;;4.47;;
32038;SDS011;18549;42.286;22.688;2024-01-30T13:11:45;6.17;;;4.70;;
32038;SDS011;18549;42.286;22.688;2024-01-30T13:14:12;5.20;;;3.80;;
32038;SDS011;18549;42.286;22.688;2024-01-30T13:16:39;33.63;;;16.60;;
32038;SDS011;18549;42.286;22.688;2024-01-30T13:19:06;12.30;;;6.90;;
32038;SDS011;18549;42.286;22.688;2024-01-30T13:21:34;15.20;;;9.00;;
32038;SDS011;18549;42.286;22.688;2024-01-30T13:24:01;9.00;;;4.53;;
32038;SDS011;18549;42.286;22.688;2024-01-30T13:26:27;29.03;;;12.20;;
32038;SDS011;18549;42.286;22.688;2024-01-30T13:28:55;33.33;;;16.30;;
32038;SDS011;18549;42.286;22.688;2024-01-30T13:31:22;19.17;;;10.17;;
32038;SDS011;18549;42.286;22.688;2024-01-30T13:33:49;8.60;;;5.60;;
32038;SDS011;18549;42.286;22.688;2024-01-30T13:36:16;6.30;;;4.10;;
32038;SDS011;18549;42.286;22.688;2024-01-30T13:38:44;8.43;;;4.17;;
32038;SDS011;18549;42.286;22.688;2024-01-30T13:41:11;4.47;;;3.53;;
32038;SDS011;18549;42.286;22.688;2024-01-30T13:43:38;8.10;;;5.63;;
32038;SDS011;18549;42.286;22.688;2024-01-30T13:46:04;12.23;;;4.00;;
32038;SDS011;18549;42.286;22.688;2024-01-30T13:48:31;9.07;;;4.80;;
32038;SDS011;18549;42.286;22.688;2024-01-30T13:50:58;8.37;;;5.47;;
32038;SDS011;18549;42.286;22.688;2024-01-30T13:53:25;15.23;;;6.57;;
32038;SDS011;18549;42.286;22.688;2024-01-30T13:55:53;29.37;;;15.13;;
32038;SDS011;18549;42.286;22.688;2024-01-30T13:58:20;49.10;;;18.77;;
32038;SDS011;18549;42.286;22.688;2024-01-30T14:00:47;44.03;;;13.40;;
32038;SDS011;18549;42.286;22.688;2024-01-30T14:03:14;21.60;;;8.83;;
32038;SDS011;18549;42.286;22.688;2024-01-30T14:05:41;34.27;;;11.30;;
32038;SDS011;18549;42.286;22.688;2024-01-30T14:08:09;9.57;;;4.87;;
32038;SDS011;18549;42.286;22.688;2024-01-30T14:48:04;31.83;;;14.20;;
32038;SDS011;18549;42.286;22.688;2024-01-30T14:50:31;17.50;;;9.80;;
32038;SDS011;18549;42.286;22.688;2024-01-30T14:52:58;9.77;;;6.20;;
32038;SDS011;18549;42.286;22.688;2024-01-30T14:55:25;11.70;;;8.17;;
32038;SDS011;18549;42.286;22.688;2024-01-30T14:57:52;19.17;;;12.43;;
32038;SDS011;18549;42.286;22.688;2024-01-30T15:00:19;20.53;;;10.47;;
32038;SDS011;18549;42.286;22.688;2024-01-30T15:02:46;20.90;;;11.33;;
32038;SDS011;18549;42.286;22.688;2024-01-30T15:05:14;31.40;;;16.63;;